Time;durP1;ratioP1;P1;durP2;ratioP2;P2;SDS_P1;SDS_P2;PMS_P1;PMS_P2;Temp;Humidity;BMP_temperature;BMP_pressure;BME280_temperature;BME280_humidity;BME280_pressure;Samples;Min_cycle;Max_cycle;Signal;HPM_P1;HPM_P2
2021/08/01 00:01:35;;;;;;;;;;;;;;;-144.99;100.00;52305.41;5050759;28;19958;-77
2021/08/01 00:04:01;;;;;;;;;;;;;;;-144.99;100.00;52293.19;5054531;28;19955;-77
2021/08/01 00:06:27;;;;;;;;;;;;;;;-144.99;100.00;52276.88;5073375;28;19935;-75
2021/08/01 00:08:54;;;;;;;;;;;;;;;-144.99;100.00;52311.53;5072579;28;19942;-78
2021/08/01 00:11:20;;;;;;;;;;;;;;;-144.99;100.00;52276.88;5075948;28;20110;-78
2021/08/01 00:13:47;;;;;;;;;;;;;;;-144.99;100.00;52287.06;5080373;28;19925;-78
2021/08/01 00:16:13;;;;;;;;;;;;;;;-144.99;100.00;52252.44;5069732;28;19924;-78
2021/08/01 00:18:41;;;;;;;;;;;;;;;-144.99;100.00;52280.97;5053432;28;19965;-77
2021/08/01 00:21:07;;;;;;;;;;;;;;;-144.99;100.00;52311.53;5048262;28;19965;-77
2021/08/01 00:23:34;;;;;;;;;;;;;;;-144.99;100.00;52293.19;5057361;28;19929;-77
2021/08/01 00:26:00;;;;;;;;;;;;;;;-144.99;100.00;52301.34;5060952;28;19970;-77
2021/08/01 00:28:27;;;;;;;;;;;;;;;-144.99;100.00;52301.34;5049715;28;19976;-78
2021/08/01 00:30:53;;;;;;;;;;;;;;;-144.99;100.00;52268.72;5058162;28;19929;-76
2021/08/01 00:33:19;;;;;;;;;;;;;;;-144.99;100.00;52289.13;5045648;28;20415;-77
2021/08/01 00:35:47;;;;;;;;;;;;;;;-144.99;100.00;52285.03;5040918;28;19940;-77
2021/08/01 00:38:13;;;;;;;;;;;;;;;-144.99;100.00;52280.97;5043862;28;19929;-78
2021/08/01 00:40:40;;;;;;;;;;;;;;;-144.99;100.00;52321.72;5061159;28;19966;-79
2021/08/01 00:43:06;;;;;;;;;;;;;;;-144.99;100.00;52313.56;5059964;28;19931;-79
2021/08/01 00:45:32;;;;;;;;;;;;;;;-144.99;100.00;52317.66;5056510;28;20280;-75
2021/08/01 00:47:59;;;;;;;;;;;;;;;-144.99;100.00;52264.66;5069000;28;19926;-77
2021/08/01 00:50:25;;;;;;;;;;;;;;;-144.99;100.00;52301.34;5052618;28;19968;-77
2021/08/01 00:52:54;;;;;;;;;;;;;;;-144.99;100.00;52293.19;5059690;28;19958;-76
2021/08/01 00:55:20;;;;;;;;;;;;;;;-144.99;100.00;52285.03;5045523;28;19961;-77
2021/08/01 00:57:46;;;;;;;;;;;;;;;-144.99;100.00;52305.41;5072777;28;19967;-76
2021/08/01 01:00:20;;;;;;;;;;;;;;;-144.99;100.00;52321.72;5077012;28;19978;-79
2021/08/01 01:02:49;;;;;;;;;;;;;;;-144.99;100.00;52329.88;5073765;28;19971;-78
2021/08/01 01:05:19;;;;;;;;;;;;;;;-144.99;100.00;52331.91;5075052;28;19945;-76
2021/08/01 01:07:48;;;;;;;;;;;;;;;-144.99;100.00;52313.56;5075230;28;19956;-78
2021/08/01 01:10:19;;;;;;;;;;;;;;;-144.99;100.00;52264.66;5058121;28;19925;-75
2021/08/01 01:12:46;;;;;;;;;;;;;;;-144.99;100.00;52307.47;5052147;28;19925;-77
2021/08/01 01:15:15;;;;;;;;;;;;;;;-144.99;100.00;52289.13;5055568;28;19940;-76
2021/08/01 01:17:45;;;;;;;;;;;;;;;-144.99;100.00;52280.97;5064093;28;19991;-80
2021/08/01 01:20:18;;;;;;;;;;;;;;;-144.99;100.00;52283.00;5076592;28;19946;-78
2021/08/01 01:22:49;;;;;;;;;;;;;;;-144.99;100.00;52311.53;5064602;28;19954;-78
2021/08/01 01:25:20;;;;;;;;;;;;;;;-144.99;100.00;52317.66;5060572;28;19965;-77
2021/08/01 01:27:49;;;;;;;;;;;;;;;-144.99;100.00;52293.19;5069173;28;19947;-77
2021/08/01 01:30:16;;;;;;;;;;;;;;;-144.99;100.00;52280.97;5064337;28;20036;-77
2021/08/01 01:32:45;;;;;;;;;;;;;;;-144.99;100.00;52285.03;5051930;28;20342;-77
2021/08/01 01:35:13;;;;;;;;;;;;;;;-144.99;100.00;52301.34;5062250;28;19979;-76
2021/08/01 01:37:42;;;;;;;;;;;;;;;-144.99;100.00;52260.56;5050318;28;19962;-76
2021/08/01 01:40:09;;;;;;;;;;;;;;;-144.99;100.00;52293.19;5056133;28;19962;-77
2021/08/01 01:42:37;;;;;;;;;;;;;;;-144.99;100.00;52276.88;5057141;28;19968;-77
2021/08/01 01:45:03;;;;;;;;;;;;;;;-144.99;100.00;52295.22;5070370;28;20155;-77
2021/08/01 01:47:31;;;;;;;;;;;;;;;-144.99;100.00;52289.13;5070316;28;19981;-77
2021/08/01 01:49:58;;;;;;;;;;;;;;;-144.99;100.00;52293.19;5069162;28;19956;-78
2021/08/01 01:52:25;;;;;;;;;;;;;;;-144.99;100.00;52285.03;5049563;28;19980;-78
2021/08/01 01:54:53;;;;;;;;;;;;;;;-144.99;100.00;52276.88;5057349;28;19965;-77
2021/08/01 01:57:20;;;;;;;;;;;;;;;-144.99;100.00;52264.66;5068079;28;19959;-76
2021/08/01 01:59:46;;;;;;;;;;;;;;;-144.99;100.00;52309.50;5058861;28;19953;-77
2021/08/01 02:02:14;;;;;;;;;;;;;;;-144.99;100.00;52285.03;5050248;28;19991;-77
2021/08/01 02:04:40;;;;;;;;;;;;;;;-144.99;100.00;52315.59;5050798;28;20424;-77
2021/08/01 02:07:06;;;;;;;;;;;;;;;-144.99;100.00;52270.78;5060051;28;19949;-76
2021/08/01 02:09:38;;;;;;;;;;;;;;;-144.99;100.00;52301.34;5079037;28;20005;-76
2021/08/01 02:12:07;;;;;;;;;;;;;;;-144.99;100.00;52289.13;5069623;28;20002;-76
2021/08/01 02:14:37;;;;;;;;;;;;;;;-144.99;100.00;52285.03;5071754;28;19979;-75
2021/08/01 02:17:05;;;;;;;;;;;;;;;-144.99;100.00;52301.34;5056150;28;19973;-76
2021/08/01 02:19:33;;;;;;;;;;;;;;;-144.99;100.00;52313.56;5075274;28;19975;-75
2021/08/01 02:21:59;;;;;;;;;;;;;;;-144.99;100.00;52272.81;5067590;22;19998;-75
2021/08/01 02:24:25;;;;;;;;;;;;;;;-144.99;100.00;52276.88;5067779;28;19950;-76
2021/08/01 02:26:52;;;;;;;;;;;;;;;-144.99;100.00;52333.94;5071832;28;19946;-76
2021/08/01 02:29:21;;;;;;;;;;;;;;;-144.99;100.00;52297.25;5070616;28;20593;-75
2021/08/01 02:31:48;;;;;;;;;;;;;;;-144.99;100.00;52323.75;5069973;28;19978;-76
2021/08/01 02:34:14;;;;;;;;;;;;;;;-144.99;100.00;52321.72;5070369;28;20346;-76
2021/08/01 02:36:40;;;;;;;;;;;;;;;-144.99;100.00;52276.88;5063406;28;19974;-75
2021/08/01 02:39:08;;;;;;;;;;;;;;;-144.99;100.00;52323.75;5070662;28;19981;-76
2021/08/01 02:41:35;;;;;;;;;;;;;;;-144.99;100.00;52283.00;5071461;28;19987;-75
2021/08/01 02:44:03;;;;;;;;;;;;;;;-144.99;100.00;52305.41;5069875;28;19978;-76
2021/08/01 02:46:33;;;;;;;;;;;;;;;-144.99;100.00;52301.34;5070495;28;19958;-75
2021/08/01 02:49:00;;;;;;;;;;;;;;;-144.99;100.00;52321.72;5070267;28;19991;-75
2021/08/01 02:51:28;;;;;;;;;;;;;;;-144.99;100.00;52301.34;5067278;28;19963;-76
2021/08/01 02:53:55;;;;;;;;;;;;;;;-144.99;100.00;52309.50;5070483;28;19997;-75
2021/08/01 02:56:23;;;;;;;;;;;;;;;-144.99;100.00;52313.56;5069887;28;20352;-76
2021/08/01 02:58:50;;;;;;;;;;;;;;;-144.99;100.00;52333.94;5070214;28;20359;-75
2021/08/01 03:01:17;;;;;;;;;;;;;;;-144.99;100.00;52309.50;5068409;28;19961;-76
2021/08/01 03:03:45;;;;;;;;;;;;;;;-144.99;100.00;52299.31;5067272;28;20225;-75
2021/08/01 03:06:11;;;;;;;;;;;;;;;-144.99;100.00;52305.41;5066257;28;19936;-75
2021/08/01 03:08:37;;;;;;;;;;;;;;;-144.99;100.00;52303.38;5067128;28;19973;-75
2021/08/01 03:11:04;;;;;;;;;;;;;;;-144.99;100.00;52311.53;5067672;28;19990;-75
2021/08/01 03:13:30;;;;;;;;;;;;;;;-144.99;100.00;52317.66;5069667;28;19988;-75
2021/08/01 03:15:56;;;;;;;;;;;;;;;-144.99;100.00;52285.03;5067486;28;19982;-74
2021/08/01 03:18:23;;;;;;;;;;;;;;;-144.99;100.00;52283.00;5067161;28;20004;-75
2021/08/01 03:20:50;;;;;;;;;;;;;;;-144.99;100.00;52285.03;5059854;28;20472;-75
2021/08/01 03:23:17;;;;;;;;;;;;;;;-144.99;100.00;52309.50;5061409;28;20453;-75
2021/08/01 03:25:43;;;;;;;;;;;;;;;-144.99;100.00;52283.00;5067325;28;20005;-75
2021/08/01 03:28:09;;;;;;;;;;;;;;;-144.99;100.00;52256.50;5067015;28;19982;-75
2021/08/01 03:30:36;;;;;;;;;;;;;;;-144.99;100.00;52309.50;5066564;28;19986;-74
2021/08/01 03:33:02;;;;;;;;;;;;;;;-144.99;100.00;52325.81;5063623;28;20003;-75
2021/08/01 03:35:28;;;;;;;;;;;;;;;-144.99;100.00;52333.94;5066592;28;20503;-73
2021/08/01 03:37:56;;;;;;;;;;;;;;;-144.99;100.00;52309.50;5066179;28;19975;-75
2021/08/01 03:40:22;;;;;;;;;;;;;;;-144.99;100.00;52313.56;5066624;28;20000;-75
2021/08/01 03:42:49;;;;;;;;;;;;;;;-144.99;100.00;52342.09;5062343;28;19993;-75
2021/08/01 03:45:15;;;;;;;;;;;;;;;-144.99;100.00;52303.38;5061767;28;20422;-75
2021/08/01 03:47:41;;;;;;;;;;;;;;;-144.99;100.00;52303.38;5066156;28;19974;-74
2021/08/01 03:50:08;;;;;;;;;;;;;;;-144.99;100.00;52297.25;5066707;28;20353;-74
2021/08/01 03:52:34;;;;;;;;;;;;;;;-144.99;100.00;52313.56;5065460;28;19959;-74
2021/08/01 03:55:02;;;;;;;;;;;;;;;-144.99;100.00;52297.25;5065544;28;19930;-73
2021/08/01 03:57:28;;;;;;;;;;;;;;;-144.99;100.00;52309.50;5066522;28;19990;-74
2021/08/01 03:59:55;;;;;;;;;;;;;;;-144.99;100.00;52338.03;5066093;28;19979;-74
2021/08/01 04:02:21;;;;;;;;;;;;;;;-144.99;100.00;52305.41;5066708;28;19977;-73
2021/08/01 04:04:47;;;;;;;;;;;;;;;-144.99;100.00;52323.75;5065733;28;19971;-74
2021/08/01 04:07:14;;;;;;;;;;;;;;;-144.99;100.00;52333.94;5065469;28;20016;-74
2021/08/01 04:09:40;;;;;;;;;;;;;;;-144.99;100.00;52309.50;5066901;28;19983;-74
2021/08/01 04:12:08;;;;;;;;;;;;;;;-144.99;100.00;52329.88;5065278;28;20017;-74
2021/08/01 04:14:34;;;;;;;;;;;;;;;-144.99;100.00;52317.66;5066927;28;20056;-74
2021/08/01 04:17:00;;;;;;;;;;;;;;;-144.99;100.00;52311.53;5066716;28;20440;-74
2021/08/01 04:19:27;;;;;;;;;;;;;;;-144.99;100.00;52321.72;5066220;28;20421;-75
2021/08/01 04:21:53;;;;;;;;;;;;;;;-144.99;100.00;52338.03;5056283;28;20075;-75
2021/08/01 04:24:19;;;;;;;;;;;;;;;-144.99;100.00;52331.91;5067086;28;19975;-75
2021/08/01 04:26:46;;;;;;;;;;;;;;;-144.99;100.00;52309.50;5067182;28;19979;-75
2021/08/01 04:29:13;;;;;;;;;;;;;;;-144.99;100.00;52319.69;5065773;28;19985;-74
2021/08/01 04:31:40;;;;;;;;;;;;;;;-144.99;100.00;52325.81;5065202;28;19979;-75
2021/08/01 04:34:06;;;;;;;;;;;;;;;-144.99;100.00;52303.38;5066288;28;19990;-75
2021/08/01 04:36:32;;;;;;;;;;;;;;;-144.99;100.00;52297.25;5064646;28;19981;-75
2021/08/01 04:38:58;;;;;;;;;;;;;;;-144.99;100.00;52301.34;5065679;28;19976;-76
2021/08/01 04:41:25;;;;;;;;;;;;;;;-144.99;100.00;52293.19;5066921;28;20385;-76
2021/08/01 04:43:51;;;;;;;;;;;;;;;-144.99;100.00;52323.75;5060445;28;19988;-76
2021/08/01 04:46:19;;;;;;;;;;;;;;;-144.99;100.00;52262.63;5065792;28;19977;-75
2021/08/01 04:48:45;;;;;;;;;;;;;;;-144.99;100.00;52336.00;5064532;28;19984;-75
2021/08/01 04:51:11;;;;;;;;;;;;;;;-144.99;100.00;52317.66;5064661;28;19990;-75
2021/08/01 04:53:37;;;;;;;;;;;;;;;-144.99;100.00;52309.50;5064818;28;20045;-76
2021/08/01 04:56:08;;;;;;;;;;;;;;;-144.99;100.00;52342.09;5066196;28;19981;-75
2021/08/01 04:58:34;;;;;;;;;;;;;;;-144.99;100.00;52305.41;5066175;28;19975;-76
2021/08/01 05:01:00;;;;;;;;;;;;;;;-144.99;100.00;52309.50;5060562;28;19976;-76
2021/08/01 05:03:28;;;;;;;;;;;;;;;-144.99;100.00;52264.66;5064574;28;20083;-76
2021/08/01 05:05:54;;;;;;;;;;;;;;;-144.99;100.00;52317.66;5064813;28;19985;-75
2021/08/01 05:08:21;;;;;;;;;;;;;;;-144.99;100.00;52285.03;5066889;28;19979;-76
2021/08/01 05:10:47;;;;;;;;;;;;;;;-144.99;100.00;52313.56;5065674;28;19985;-76
2021/08/01 05:13:13;;;;;;;;;;;;;;;-144.99;100.00;52305.41;5065476;28;20010;-75
2021/08/01 05:15:41;;;;;;;;;;;;;;;-144.99;100.00;52317.66;5064189;28;20308;-75
2021/08/01 05:18:07;;;;;;;;;;;;;;;-144.99;100.00;52297.25;5066539;28;19975;-75
2021/08/01 05:20:35;;;;;;;;;;;;;;;-144.99;100.00;52329.88;5061532;28;19980;-76
2021/08/01 05:23:01;;;;;;;;;;;;;;;-144.99;100.00;52325.81;5059385;28;20006;-76
2021/08/01 05:25:27;;;;;;;;;;;;;;;-144.99;100.00;52309.50;5062271;28;19976;-76
2021/08/01 05:27:53;;;;;;;;;;;;;;;-144.99;100.00;52301.34;5066520;28;19972;-76
2021/08/01 05:30:20;;;;;;;;;;;;;;;-144.99;100.00;52301.34;5065740;28;19957;-76
2021/08/01 05:32:46;;;;;;;;;;;;;;;-144.99;100.00;52291.16;5069599;28;20002;-76
2021/08/01 05:35:12;;;;;;;;;;;;;;;-144.99;100.00;52293.19;5067585;28;20032;-76
2021/08/01 05:37:40;;;;;;;;;;;;;;;-144.99;100.00;52311.53;5068894;28;19974;-76
2021/08/01 05:40:08;;;;;;;;;;;;;;;-144.99;100.00;52299.31;5070056;28;19979;-76
2021/08/01 05:42:35;;;;;;;;;;;;;;;-144.99;100.00;52293.19;5071287;28;19995;-76
2021/08/01 05:45:01;;;;;;;;;;;;;;;-144.99;100.00;52285.03;5069496;28;19979;-77
2021/08/01 05:47:28;;;;;;;;;;;;;;;-144.99;100.00;52313.56;5068827;28;20349;-76
2021/08/01 05:49:54;;;;;;;;;;;;;;;-144.99;100.00;52272.81;5069878;28;19979;-76
2021/08/01 05:52:20;;;;;;;;;;;;;;;-144.99;100.00;52276.88;5068662;28;20008;-76
2021/08/01 05:54:48;;;;;;;;;;;;;;;-144.99;100.00;52327.84;5069282;28;19976;-76
2021/08/01 05:57:14;;;;;;;;;;;;;;;-144.99;100.00;52307.47;5069458;28;19967;-76
2021/08/01 05:59:40;;;;;;;;;;;;;;;-144.99;100.00;52297.25;5067492;28;19980;-76
2021/08/01 06:02:07;;;;;;;;;;;;;;;-144.99;100.00;52280.97;5069559;28;19951;-76
2021/08/01 06:04:33;;;;;;;;;;;;;;;-144.99;100.00;52319.69;5070532;28;19940;-77
2021/08/01 06:06:59;;;;;;;;;;;;;;;-144.99;100.00;52272.81;5067376;28;19931;-75
2021/08/01 06:09:26;;;;;;;;;;;;;;;-144.99;100.00;52305.41;5071467;28;19933;-76
2021/08/01 06:11:54;;;;;;;;;;;;;;;-144.99;100.00;52289.13;5072784;28;20318;-76
2021/08/01 06:14:20;;;;;;;;;;;;;;;-144.99;100.00;52293.19;5070186;28;19925;-76
2021/08/01 06:16:47;;;;;;;;;;;;;;;-144.99;100.00;52280.97;5066531;28;19966;-75
2021/08/01 06:19:13;;;;;;;;;;;;;;;-144.99;100.00;52256.50;5068569;28;20024;-74
2021/08/01 06:21:39;;;;;;;;;;;;;;;-144.99;100.00;52289.13;5067851;28;19963;-75
2021/08/01 06:24:06;;;;;;;;;;;;;;;-144.99;100.00;52297.25;5070056;28;19978;-76
2021/08/01 06:26:32;;;;;;;;;;;;;;;-144.99;100.00;52272.81;5067962;28;19925;-75
2021/08/01 06:29:00;;;;;;;;;;;;;;;-144.99;100.00;52321.72;5068034;28;20456;-75
2021/08/01 06:31:26;;;;;;;;;;;;;;;-144.99;100.00;52297.25;5068764;28;19928;-76
2021/08/01 06:33:52;;;;;;;;;;;;;;;-144.99;100.00;52276.88;5069493;28;19989;-74
2021/08/01 06:36:19;;;;;;;;;;;;;;;-144.99;100.00;52276.88;5066497;28;19928;-75
2021/08/01 06:38:45;;;;;;;;;;;;;;;-144.99;100.00;52254.47;5068051;28;19924;-75
2021/08/01 06:41:12;;;;;;;;;;;;;;;-144.99;100.00;52270.78;5068692;28;19947;-77
2021/08/01 06:43:38;;;;;;;;;;;;;;;-144.99;100.00;52297.25;5069092;28;20341;-76
2021/08/01 06:46:06;;;;;;;;;;;;;;;-144.99;100.00;52276.88;5069100;28;19980;-76
2021/08/01 06:48:33;;;;;;;;;;;;;;;-144.99;100.00;52278.91;5064593;28;19933;-75
2021/08/01 06:51:01;;;;;;;;;;;;;;;-144.99;100.00;52272.81;5066504;28;19929;-76
2021/08/01 06:53:28;;;;;;;;;;;;;;;-144.99;100.00;52232.03;5068998;28;20384;-75
2021/08/01 06:55:54;;;;;;;;;;;;;;;-144.99;100.00;52232.03;5069351;28;19947;-76
2021/08/01 06:58:21;;;;;;;;;;;;;;;-144.99;100.00;52305.41;5066110;28;19943;-76
2021/08/01 07:00:47;;;;;;;;;;;;;;;-144.99;100.00;52268.72;5067931;28;19924;-73
2021/08/01 07:03:15;;;;;;;;;;;;;;;-144.99;100.00;52272.81;5068522;28;20011;-74
2021/08/01 07:05:41;;;;;;;;;;;;;;;-144.99;100.00;52317.66;5066801;28;19951;-74
2021/08/01 07:08:07;;;;;;;;;;;;;;;-144.99;100.00;52260.56;5067236;28;19932;-73
2021/08/01 07:10:34;;;;;;;;;;;;;;;-144.99;100.00;52240.19;5067768;28;19978;-74
2021/08/01 07:13:01;;;;;;;;;;;;;;;-144.99;100.00;52264.66;5068861;28;19969;-73
2021/08/01 07:15:28;;;;;;;;;;;;;;;-144.99;100.00;52289.13;5068817;28;20328;-75
2021/08/01 07:17:55;;;;;;;;;;;;;;;-144.99;100.00;52268.72;5067714;28;19932;-73
2021/08/01 07:20:23;;;;;;;;;;;;;;;-144.99;98.98;52223.88;5065779;28;19955;-73
2021/08/01 07:22:50;;;;;;;;;;;;;;;-144.99;99.42;52285.03;5066763;28;19986;-73
2021/08/01 07:25:17;;;;;;;;;;;;;;;-144.99;98.81;52268.72;5068502;28;19973;-74
2021/08/01 07:27:43;;;;;;;;;;;;;;;-144.99;99.09;52225.94;5069112;28;19949;-74
2021/08/01 07:30:10;;;;;;;;;;;;;;;-144.99;98.96;52246.31;5065731;28;19961;-72
2021/08/01 07:32:37;;;;;;;;;;;;;;;-144.99;98.62;52260.56;5068695;28;19939;-72
2021/08/01 07:35:04;;;;;;;;;;;;;;;-144.99;97.79;52301.34;5055636;28;20334;-72
2021/08/01 07:37:32;;;;;;;;;;;;;;;-144.99;98.19;52297.25;5061895;28;19967;-75
2021/08/01 07:39:58;;;;;;;;;;;;;;;-144.99;97.58;52272.81;5066211;28;19948;-73
2021/08/01 07:42:24;;;;;;;;;;;;;;;-144.99;98.06;52297.25;5067322;28;20119;-75
2021/08/01 07:44:53;;;;;;;;;;;;;;;-144.99;97.54;52248.34;5067596;28;19966;-75
2021/08/01 07:47:20;;;;;;;;;;;;;;;-144.99;97.16;52254.47;5066983;28;19948;-75
2021/08/01 07:49:48;;;;;;;;;;;;;;;-144.99;96.86;52264.66;5064551;28;19928;-75
2021/08/01 07:52:15;;;;;;;;;;;;;;;-144.99;97.11;52240.19;5062781;28;19957;-77
2021/08/01 07:54:43;;;;;;;;;;;;;;;-144.99;95.30;52260.56;5067297;28;19930;-75
2021/08/01 07:57:21;;;;;;;;;;;;;;;-144.99;93.76;52227.97;5067701;28;19943;-75
2021/08/01 07:59:47;;;;;;;;;;;;;;;-144.99;93.96;52240.19;5065228;28;19982;-75
2021/08/01 08:02:13;;;;;;;;;;;;;;;-144.99;92.45;52232.03;5065761;28;19925;-75
2021/08/01 08:04:40;;;;;;;;;;;;;;;-144.99;92.17;52252.44;5068894;28;20395;-75
2021/08/01 08:07:06;;;;;;;;;;;;;;;-144.99;91.47;52246.31;5066383;28;19928;-75
2021/08/01 08:09:33;;;;;;;;;;;;;;;-144.99;91.09;52264.66;5066551;28;19928;-75
2021/08/01 08:12:00;;;;;;;;;;;;;;;-144.99;90.36;52236.13;5066205;28;19925;-75
2021/08/01 08:14:27;;;;;;;;;;;;;;;-144.99;90.29;52248.34;5067108;28;19935;-75
2021/08/01 08:16:53;;;;;;;;;;;;;;;-144.99;90.16;52252.44;5067669;28;19962;-75
2021/08/01 08:19:19;;;;;;;;;;;;;;;-144.99;90.23;52295.22;5063186;28;20035;-75
2021/08/01 08:21:45;;;;;;;;;;;;;;;-144.99;89.56;52262.63;5062840;28;20402;-75
2021/08/01 08:24:12;;;;;;;;;;;;;;;-144.99;89.83;52252.44;5103476;22;19931;-82
2021/08/01 08:26:39;;;;;;;;;;;;;;;-144.99;90.14;52264.66;5095714;28;19928;-82
2021/08/01 08:29:06;;;;;;;;;;;;;;;-144.99;89.53;52256.50;5098311;28;19966;-80
2021/08/01 08:31:33;;;;;;;;;;;;;;;-144.99;88.57;52272.81;5104570;28;19954;-82
2021/08/01 08:33:59;;;;;;;;;;;;;;;-144.99;88.13;52252.44;5105730;28;19978;-82
2021/08/01 08:36:25;;;;;;;;;;;;;;;-144.99;88.49;52219.81;5100637;28;19931;-81
2021/08/01 08:38:52;;;;;;;;;;;;;;;-144.99;87.46;52232.03;5101671;28;19959;-81
2021/08/01 08:41:18;;;;;;;;;;;;;;;-144.99;85.10;52232.03;5114353;28;19945;-82
2021/08/01 08:43:45;;;;;;;;;;;;;;;-144.99;84.17;52170.91;5099598;28;19924;-79
2021/08/01 08:46:12;;;;;;;;;;;;;;;-144.99;84.08;52187.19;5094101;28;19924;-81
2021/08/01 08:48:39;;;;;;;;;;;;;;;-144.99;82.65;52209.63;5094764;28;19940;-76
2021/08/01 08:51:09;;;;;;;;;;;;;;;-144.99;80.18;52211.66;5105967;28;19932;-79
2021/08/01 08:53:36;;;;;;;;;;;;;;;-144.99;80.98;52207.59;5113462;28;19924;-80
2021/08/01 08:56:03;;;;;;;;;;;;;;;-144.99;79.99;52232.03;5101681;28;20335;-78
2021/08/01 08:58:30;;;;;;;;;;;;;;;-144.99;80.37;52256.50;5097441;28;19931;-82
2021/08/01 09:00:56;;;;;;;;;;;;;;;-144.99;80.48;52240.19;5102493;28;19976;-84
2021/08/01 09:03:25;;;;;;;;;;;;;;;-144.99;81.08;52211.66;5117129;28;19991;-81
2021/08/01 09:05:56;;;;;;;;;;;;;;;-144.99;81.51;52227.97;5117056;28;20776;-82
2021/08/01 09:08:23;;;;;;;;;;;;;;;-144.99;81.73;52236.13;5120383;28;19924;-83
2021/08/01 09:10:49;;;;;;;;;;;;;;;-144.99;82.07;52252.44;5116653;28;19955;-77
2021/08/01 09:13:42;;;;;;;;;;;;;;;-144.99;81.53;52236.13;5110780;28;19924;-77
2021/08/01 09:16:08;;;;;;;;;;;;;;;-144.99;81.03;52223.88;5117813;28;19928;-77
2021/08/01 09:18:36;;;;;;;;;;;;;;;-144.99;81.86;52244.28;5111289;28;19932;-80
2021/08/01 09:21:02;;;;;;;;;;;;;;;-144.99;82.70;52250.38;5107589;28;20394;-80
2021/08/01 09:23:28;;;;;;;;;;;;;;;-144.99;83.02;52215.75;5119597;28;19988;-78
2021/08/01 09:25:57;;;;;;;;;;;;;;;-144.99;83.29;52219.81;5115021;28;19938;-80
2021/08/01 09:28:24;;;;;;;;;;;;;;;-144.99;81.05;52215.75;5110714;28;19946;-78
2021/08/01 09:30:52;;;;;;;;;;;;;;;-144.99;78.73;52227.97;5106530;28;19981;-78
2021/08/01 09:33:31;;;;;;;;;;;;;;;-144.99;77.63;52179.06;5107956;28;19939;-78
2021/08/01 09:36:05;;;;;;;;;;;;;;;-144.99;76.57;52221.84;5099992;28;20676;-75
2021/08/01 09:38:42;;;;;;;;;;;;;;;-144.99;73.94;52215.75;5102527;28;19928;-77
2021/08/01 09:41:09;;;;;;;;;;;;;;;-144.99;74.39;52201.47;5100258;28;19957;-76
2021/08/01 09:43:43;;;;;;;;;;;;;;;-144.99;75.76;52236.13;5101828;28;19946;-77
2021/08/01 09:46:09;;;;;;;;;;;;;;;-144.99;77.35;52244.28;5094428;28;19931;-76
2021/08/01 09:48:36;;;;;;;;;;;;;;;-144.99;78.11;52248.34;5094079;28;20275;-76
2021/08/01 09:51:03;;;;;;;;;;;;;;;-144.99;78.65;52280.97;5107035;28;19927;-77
2021/08/01 09:53:31;;;;;;;;;;;;;;;-144.99;79.41;52260.56;5106565;28;19931;-76
2021/08/01 09:56:11;;;;;;;;;;;;;;;-144.99;79.69;52232.03;5104026;28;19927;-75
2021/08/01 09:58:37;;;;;;;;;;;;;;;-144.99;78.89;52227.97;5096822;28;19967;-77
2021/08/01 10:01:04;;;;;;;;;;;;;;;-144.99;77.56;52187.19;5097168;28;20525;-77
2021/08/01 10:03:34;;;;;;;;;;;;;;;-144.99;76.34;52217.78;5102091;28;19935;-76
2021/08/01 10:06:06;;;;;;;;;;;;;;;-144.99;74.50;52221.84;5098734;28;20326;-76
2021/08/01 10:08:43;;;;;;;;;;;;;;;-144.99;73.40;52195.34;4670362;28;10000889;-74
2021/08/01 10:11:10;;;;;;;;;;;;;;;-144.99;72.04;52207.59;5086971;27;20010;-74
2021/08/01 10:13:37;;;;;;;;;;;;;;;-144.99;71.43;52195.34;5092695;28;19927;-78
2021/08/01 10:16:03;;;;;;;;;;;;;;;-144.99;70.29;52195.34;5097255;28;20403;-77
2021/08/01 10:18:29;;;;;;;;;;;;;;;-144.99;69.42;52215.75;5102123;28;19927;-77
2021/08/01 10:20:56;;;;;;;;;;;;;;;-144.99;68.95;52215.75;5104174;28;19935;-77
2021/08/01 10:23:24;;;;;;;;;;;;;;;-144.99;69.57;52221.84;5098417;28;19939;-78
2021/08/01 10:25:53;;;;;;;;;;;;;;;-144.99;69.05;52230.00;5094565;28;19923;-76
2021/08/01 10:28:20;;;;;;;;;;;;;;;-144.99;68.69;52227.97;5094636;28;19928;-77
2021/08/01 10:30:47;;;;;;;;;;;;;;;-144.99;69.53;52242.22;5095138;28;19928;-77
2021/08/01 10:33:16;;;;;;;;;;;;;;;-144.99;70.39;52244.28;5102434;28;19927;-77
2021/08/01 10:35:46;;;;;;;;;;;;;;;-144.99;72.70;52268.72;5099849;28;19927;-77
2021/08/01 10:38:15;;;;;;;;;;;;;;;-144.99;74.96;52240.19;5094390;28;19934;-74
2021/08/01 10:40:41;;;;;;;;;;;;;;;-144.99;77.50;52232.03;5101635;28;19946;-75
2021/08/01 10:43:11;;;;;;;;;;;;;;;-144.99;79.15;52264.66;5089495;28;20367;-76
2021/08/01 10:45:37;;;;;;;;;;;;;;;-144.99;81.20;52289.13;5105396;28;19928;-77
2021/08/01 10:48:06;;;;;;;;;;;;;;;-144.99;82.85;52260.56;5106149;28;19935;-75
2021/08/01 10:50:33;;;;;;;;;;;;;;;-144.99;83.62;52309.50;5105123;28;19968;-73
2021/08/01 10:53:18;;;;;;;;;;;;;;;-144.99;84.58;52260.56;5099712;28;19932;-76
2021/08/01 10:55:45;;;;;;;;;;;;;;;-144.99;84.84;52268.72;5106960;28;19928;-76
2021/08/01 10:58:13;;;;;;;;;;;;;;;-144.99;84.75;52285.03;5097142;28;19927;-79
2021/08/01 11:00:54;;;;;;;;;;;;;;;-144.99;85.27;52268.72;5093598;28;20220;-78
2021/08/01 11:03:20;;;;;;;;;;;;;;;-144.99;85.89;52289.13;5087971;28;19931;-76
2021/08/01 11:05:47;;;;;;;;;;;;;;;-144.99;86.51;52293.19;5082064;28;20407;-75
2021/08/01 11:08:14;;;;;;;;;;;;;;;-144.99;87.41;52305.41;5097062;28;19932;-78
2021/08/01 11:10:41;;;;;;;;;;;;;;;-144.99;88.20;52289.13;5093248;28;20176;-77
2021/08/01 11:13:22;;;;;;;;;;;;;;;-144.99;88.75;52264.66;5083828;28;20327;-78
2021/08/01 11:15:51;;;;;;;;;;;;;;;-144.99;89.55;52325.81;5081682;28;20395;-77
2021/08/01 11:18:29;;;;;;;;;;;;;;;-144.99;90.04;52287.06;5098238;28;19935;-77
2021/08/01 11:20:56;;;;;;;;;;;;;;;-144.99;90.62;52285.03;5092606;28;20334;-77
2021/08/01 11:23:22;;;;;;;;;;;;;;;-144.99;89.74;52289.13;5095547;28;19927;-77
2021/08/01 11:26:05;;;;;;;;;;;;;;;-144.99;90.60;52327.84;5100435;28;19943;-77
2021/08/01 11:28:34;;;;;;;;;;;;;;;-144.99;90.75;52331.91;5091355;28;20023;-75
2021/08/01 11:31:10;;;;;;;;;;;;;;;-144.99;90.87;52317.66;5082157;28;19928;-76
2021/08/01 11:33:38;;;;;;;;;;;;;;;-144.99;90.69;52319.69;5085606;28;19928;-76
2021/08/01 11:36:19;;;;;;;;;;;;;;;-144.99;90.74;52299.31;5087547;28;20329;-76
2021/08/01 11:38:59;;;;;;;;;;;;;;;-144.99;91.04;52342.09;5089740;28;20398;-72
2021/08/01 11:41:33;;;;;;;;;;;;;;;-144.99;91.58;52293.19;5086731;28;19935;-73
2021/08/01 11:44:00;;;;;;;;;;;;;;;-144.99;91.91;52268.72;5088685;28;19931;-76
2021/08/01 11:46:29;;;;;;;;;;;;;;;-144.99;91.18;52309.50;5098203;28;19927;-73
2021/08/01 11:48:57;;;;;;;;;;;;;;;-144.99;90.78;52295.22;5094362;28;20105;-75
2021/08/01 11:51:24;;;;;;;;;;;;;;;-144.99;90.97;52289.13;5085634;28;19931;-75
2021/08/01 11:53:50;;;;;;;;;;;;;;;-144.99;90.84;52309.50;5088512;28;20381;-75
2021/08/01 11:56:18;;;;;;;;;;;;;;;-144.99;90.91;52297.25;5090906;28;22232;-72
2021/08/01 11:58:45;;;;;;;;;;;;;;;-144.99;89.97;52260.56;5089793;28;19928;-73
2021/08/01 12:01:11;;;;;;;;;;;;;;;-144.99;89.05;52280.97;5092049;28;19938;-72
2021/08/01 12:03:40;;;;;;;;;;;;;;;-144.99;86.86;52321.72;5098329;28;20449;-75
2021/08/01 12:06:06;;;;;;;;;;;;;;;-144.99;86.78;52309.50;5095200;28;20170;-75
2021/08/01 12:08:33;;;;;;;;;;;;;;;-144.99;87.71;52305.41;5094264;28;19938;-75
2021/08/01 12:11:11;;;;;;;;;;;;;;;-144.99;88.27;52303.38;5091226;28;19939;-75
2021/08/01 12:13:37;;;;;;;;;;;;;;;-144.99;89.01;52307.47;5092399;28;19935;-75
2021/08/01 12:16:15;;;;;;;;;;;;;;;-144.99;88.69;52329.88;5089868;28;19950;-75
2021/08/01 12:18:43;;;;;;;;;;;;;;;-144.99;89.21;52305.41;5083509;28;19954;-74
2021/08/01 12:21:24;;;;;;;;;;;;;;;-144.99;89.50;52299.31;5091717;28;19950;-78
2021/08/01 12:23:50;;;;;;;;;;;;;;;-144.99;89.67;52374.72;5098194;28;20401;-77